Tulelake, CA

2:16 PM PST on February 14, 2016 (GMT -0800)
Panhandle | | Change Station
CLOSE
Current Station
Personal Weather Station
Location: Tulelake, CA
Elevation: 4062 ft
Nearby Weather Stations

Elev 4062 ft 41.80 °N, 121.41 °W | Updated 7 seconds ago

Overcast
Overcast
55.0 °F
Feels Like 55.0 °F
N
16.8
Wind Variable Wind from WNW
Gusts 19.9 mph

Today
High -- | Low -- °F
--% Chance of Precip.
Yesterday
High -- | Low -- °F
Precip. -- in
Pressure 30.35 in
Visibility 10.0 miles
Clouds Mostly Cloudy 2200 ft
Overcast 2900 ft
Dew Point 45 °F
Humidity 68%
Rainfall 0.00 in
Snow Depth Not available.
7:03 AM 5:37 PM
Waxing Crescent, 46% visible
METAR KLMT 142153Z 00000KT 10SM BKN022 OVC029 11/06 A3037 RMK AO2 SLP278 T01060061
Pressure 30.35 in
Visibility 10.0 miles
Clouds Mostly Cloudy 2200 ft
Overcast 2900 ft
Dew Point 45 °F
Humidity 68%
Rainfall 0.00 in
Snow Depth Not available.
7:03 AM 5:37 PM
Waxing Crescent, 46% visible
METAR KLMT 142153Z 00000KT 10SM BKN022 OVC029 11/06 A3037 RMK AO2 SLP278 T01060061

10-Day Weather Forecast

Almanac

Astronomy

Feb. 14, 2016 Rise Set
Actual Time
Civil Twilight
Nautical Twilight
Astronomical Twilight
Moon
Length of Visible Light
Length of Day
Tomorrow will be .
, % of the Moon is Illuminated

Today's Extremes

State Highs State Lows

Community

WunderPhotos

Upload Photos

1,892,893 photos uploaded!

WunderBlog® & News

Nearby

Air Quality

  Air Quality AQ Index Pollutant
Not available.

Snow Depth

Station Depth Elevation

Earthquake Activity

City Distance Mag. Time & Date
Minimum magnitude displayed is 2.5.

Coastal Water Temperatures

Place Temperature

Stations

Nearby Weather Stations

Station Location Temp. Windchill Dew Point Humidity Wind Precip. Elev Updated Type
                   

Watches & Warnings

There are currently no watches in effect.